Time;durP1;ratioP1;P1;durP2;ratioP2;P2;SDS_P1;SDS_P2;PMS_P1;PMS_P2;Temp;Humidity;BMP_temperature;BMP_pressure;BME280_temperature;BME280_humidity;BME280_pressure;Samples;Min_cycle;Max_cycle;Signal;HPM_P1;HPM_P2
2023/01/02 00:01:41;;;;;;;6.15;3.45;;;12.60;99.90;;;;;;5044372;28;20029;-41
2023/01/02 00:04:07;;;;;;;5.53;3.35;;;12.60;99.90;;;;;;5042399;28;20357;-39
2023/01/02 00:06:34;;;;;;;4.95;3.28;;;12.60;99.90;;;;;;5043521;28;20507;-38
2023/01/02 00:09:00;;;;;;;5.68;3.67;;;12.60;99.90;;;;;;5043142;28;20025;-35
2023/01/02 00:11:26;;;;;;;6.63;4.13;;;12.60;99.90;;;;;;5042791;28;20476;-39
2023/01/02 00:13:52;;;;;;;5.85;3.40;;;12.70;99.90;;;;;;5043277;28;20033;-40
2023/01/02 00:16:17;;;;;;;7.53;3.47;;;12.70;99.90;;;;;;5042395;28;20100;-40
2023/01/02 00:18:44;;;;;;;7.22;3.92;;;12.70;99.90;;;;;;5043163;28;20025;-34
2023/01/02 00:21:09;;;;;;;4.63;2.60;;;12.70;99.90;;;;;;5042910;28;20025;-38
2023/01/02 00:23:35;;;;;;;4.63;3.20;;;12.70;99.90;;;;;;5043156;28;20021;-39
2023/01/02 00:26:01;;;;;;;4.50;2.88;;;12.70;99.90;;;;;;5042862;28;20021;-40
2023/01/02 00:28:27;;;;;;;6.18;3.58;;;12.70;99.90;;;;;;5043596;28;20036;-41
2023/01/02 00:30:53;;;;;;;4.13;3.15;;;12.70;99.90;;;;;;5043182;28;20071;-40
2023/01/02 00:33:18;;;;;;;7.00;3.70;;;12.70;99.90;;;;;;5042277;28;20052;-37
2023/01/02 00:35:44;;;;;;;6.18;3.90;;;12.70;99.90;;;;;;5043964;28;20025;-38
2023/01/02 00:38:09;;;;;;;6.38;3.47;;;12.70;99.90;;;;;;5045739;28;20035;-39
2023/01/02 00:40:35;;;;;;;8.27;3.55;;;12.70;99.90;;;;;;5047376;28;20051;-41
2023/01/02 00:43:00;;;;;;;7.43;4.00;;;12.80;99.90;;;;;;5046070;28;20563;-39
2023/01/02 00:45:26;;;;;;;6.97;3.75;;;12.80;99.90;;;;;;5046618;28;20024;-39
2023/01/02 00:47:52;;;;;;;5.97;3.63;;;12.80;99.90;;;;;;5047271;28;20793;-40
2023/01/02 00:50:18;;;;;;;6.15;3.97;;;12.80;99.90;;;;;;5046545;28;20017;-40
2023/01/02 00:52:44;;;;;;;5.57;3.50;;;12.80;99.90;;;;;;5046190;28;20503;-42
2023/01/02 00:55:09;;;;;;;7.55;3.72;;;12.80;99.90;;;;;;5045557;28;20033;-38
2023/01/02 00:57:35;;;;;;;5.63;3.40;;;12.80;99.90;;;;;;5046629;28;20033;-40
2023/01/02 01:00:01;;;;;;;4.40;2.85;;;12.80;99.90;;;;;;5045568;28;20060;-40
2023/01/02 01:02:26;;;;;;;6.32;3.13;;;12.80;99.90;;;;;;5047293;28;20079;-40
2023/01/02 01:04:52;;;;;;;7.20;3.40;;;12.80;99.90;;;;;;5046821;28;20115;-40
2023/01/02 01:07:17;;;;;;;4.53;2.75;;;12.90;99.90;;;;;;5045414;28;20402;-40
2023/01/02 01:09:43;;;;;;;7.90;3.20;;;12.90;99.90;;;;;;5046543;28;20050;-41
2023/01/02 01:12:09;;;;;;;5.25;3.10;;;12.80;99.90;;;;;;5045566;28;20056;-40
2023/01/02 01:14:34;;;;;;;8.23;3.42;;;12.90;99.90;;;;;;5046181;28;20044;-40
2023/01/02 01:17:00;;;;;;;2.95;2.35;;;12.90;99.90;;;;;;5045704;28;20430;-37
2023/01/02 01:19:33;;;;;;;6.47;3.58;;;12.90;99.90;;;;;;5046220;28;20041;-39
2023/01/02 01:21:59;;;;;;;4.95;3.33;;;12.90;99.90;;;;;;5045844;28;20029;-41
2023/01/02 01:24:25;;;;;;;5.22;3.28;;;12.90;99.90;;;;;;5046103;28;20028;-40
2023/01/02 01:26:50;;;;;;;7.35;3.33;;;13.00;99.90;;;;;;5045743;28;20029;-40
2023/01/02 01:29:16;;;;;;;4.95;3.30;;;13.00;99.90;;;;;;5045695;28;20060;-40
2023/01/02 01:31:42;;;;;;;5.97;3.30;;;13.00;99.90;;;;;;5046199;28;20029;-39
2023/01/02 01:34:09;;;;;;;7.95;3.40;;;13.00;99.90;;;;;;5044873;28;20124;-41
2023/01/02 01:36:35;;;;;;;7.07;3.08;;;13.00;99.90;;;;;;5045709;28;20128;-40
2023/01/02 01:39:01;;;;;;;3.63;2.33;;;13.00;99.90;;;;;;5045944;28;20037;-37
2023/01/02 01:41:27;;;;;;;8.50;3.35;;;13.00;99.90;;;;;;5045229;28;20029;-39
2023/01/02 01:43:58;;;;;;;6.10;2.83;;;13.10;99.90;;;;;;5045693;28;20028;-38
2023/01/02 01:46:40;;;;;;;6.07;3.28;;;13.10;99.90;;;;;;5045995;28;20366;-40
2023/01/02 01:49:15;;;;;;;6.05;2.88;;;13.10;99.90;;;;;;5044337;28;20037;-40
2023/01/02 01:52:05;;;;;;;4.80;3.05;;;13.10;99.90;;;;;;5045436;28;20029;-40
2023/01/02 01:54:37;;;;;;;6.95;3.20;;;13.10;99.90;;;;;;5025788;28;20036;-39
2023/01/02 01:57:10;;;;;;;5.55;3.28;;;13.10;99.90;;;;;;5040402;28;20044;-39
2023/01/02 01:59:36;;;;;;;5.60;3.65;;;13.10;99.90;;;;;;5025692;28;20361;-40
2023/01/02 02:02:02;;;;;;;7.03;3.60;;;13.10;99.90;;;;;;5037993;28;20024;-39
2023/01/02 02:04:27;;;;;;;5.35;2.90;;;13.10;99.90;;;;;;5045869;28;20731;-40
2023/01/02 02:06:53;;;;;;;5.80;2.92;;;13.10;99.90;;;;;;5045608;28;20578;-39
2023/01/02 02:09:31;;;;;;;6.70;3.20;;;13.10;99.90;;;;;;5044115;28;20026;-40
2023/01/02 02:11:57;;;;;;;6.38;3.05;;;13.10;99.90;;;;;;5044769;28;20009;-37
2023/01/02 02:14:22;;;;;;;3.42;2.45;;;13.10;99.90;;;;;;5045355;28;20083;-35
2023/01/02 02:17:15;;;;;;;4.80;2.92;;;13.10;99.90;;;;;;5044242;28;20041;-34
2023/01/02 02:19:56;;;;;;;5.18;2.92;;;13.10;99.90;;;;;;5041699;28;20037;-39
2023/01/02 02:22:49;;;;;;;6.68;3.15;;;13.10;99.90;;;;;;5044423;28;20038;-39
2023/01/02 02:25:42;;;;;;;5.10;3.20;;;13.10;99.90;;;;;;5044855;28;20111;-36
2023/01/02 02:28:38;;;;;;;5.40;3.88;;;13.10;99.90;;;;;;5044662;28;20040;-39
2023/01/02 02:31:21;;;;;;;7.80;3.20;;;13.10;99.90;;;;;;5023332;28;20782;-39
2023/01/02 02:34:11;;;;;;;5.43;2.60;;;13.10;99.90;;;;;;5044721;28;20070;-40
2023/01/02 02:36:44;;;;;;;4.82;2.80;;;13.10;99.90;;;;;;5045207;28;20435;-40
2023/01/02 02:39:17;;;;;;;;;;;13.10;99.90;;;;;;5040769;28;20384;-39
2023/01/02 02:41:53;;;;;;;5.25;3.15;;;13.10;99.90;;;;;;5044635;28;19908;-35
2023/01/02 02:44:19;;;;;;;5.60;2.90;;;13.10;99.90;;;;;;5042997;28;20025;-41
2023/01/02 02:46:47;;;;;;;7.95;3.10;;;13.10;99.90;;;;;;5044735;28;20029;-40
2023/01/02 02:49:24;;;;;;;4.25;2.60;;;13.10;99.90;;;;;;5044127;28;20033;-42
2023/01/02 02:51:55;;;;;;;6.57;2.97;;;13.10;99.90;;;;;;5044599;28;20107;-41
2023/01/02 02:54:29;;;;;;;9.00;3.55;;;13.10;99.90;;;;;;5044229;28;20068;-39
2023/01/02 02:56:56;;;;;;;9.15;2.85;;;13.10;99.90;;;;;;5044930;28;20494;-40
2023/01/02 02:59:22;;;;;;;4.82;2.88;;;13.10;99.90;;;;;;5042284;28;20354;-40
2023/01/02 03:01:48;;;;;;;3.65;2.28;;;13.20;99.90;;;;;;5044865;28;20029;-40
2023/01/02 03:04:19;;;;;;;7.22;3.03;;;13.20;99.90;;;;;;5044509;28;20108;-40
2023/01/02 03:07:01;;;;;;;7.30;2.83;;;13.20;99.90;;;;;;5043182;28;20060;-37
2023/01/02 03:10:03;;;;;;;4.75;2.97;;;13.20;99.90;;;;;;5038508;28;20036;-42
2023/01/02 03:12:56;;;;;;;4.50;2.70;;;13.20;99.90;;;;;;5023659;28;20538;-39
2023/01/02 03:15:29;;;;;;;4.63;2.72;;;13.20;99.90;;;;;;5040684;28;20029;-38
2023/01/02 03:18:34;;;;;;;3.88;2.45;;;13.20;99.90;;;;;;5044091;28;20386;-40
2023/01/02 03:21:09;;;;;;;7.53;2.80;;;13.20;99.90;;;;;;5031583;28;20047;-41
2023/01/02 03:23:42;;;;;;;5.82;3.05;;;13.20;99.90;;;;;;5044425;28;20025;-38
2023/01/02 03:26:08;;;;;;;4.38;2.70;;;13.20;99.90;;;;;;5043004;28;20029;-38
2023/01/02 03:28:37;;;;;;;5.20;2.38;;;13.20;99.90;;;;;;5043769;28;20036;-40
2023/01/02 03:31:04;;;;;;;5.72;2.70;;;13.20;99.90;;;;;;5043441;28;20124;-40
2023/01/02 03:33:35;;;;;;;4.57;2.90;;;13.20;99.90;;;;;;5042533;28;20053;-39
2023/01/02 03:36:10;;;;;;;7.47;3.58;;;13.20;99.90;;;;;;5042991;28;20033;-43
2023/01/02 03:38:59;;;;;;;4.07;2.65;;;13.20;99.90;;;;;;5043925;28;20033;-39
2023/01/02 03:41:35;;;;;;;5.70;2.88;;;13.20;99.90;;;;;;5040954;28;20168;-40
2023/01/02 03:44:02;;;;;;;4.75;2.85;;;13.30;99.90;;;;;;5043391;28;20037;-40
2023/01/02 03:46:48;;;;;;;5.55;2.72;;;13.30;99.90;;;;;;5043788;28;20667;-38
2023/01/02 03:49:21;;;;;;;4.93;2.60;;;13.20;99.90;;;;;;5042020;28;20396;-40
2023/01/02 03:51:47;;;;;;;6.63;2.53;;;13.30;99.90;;;;;;5044328;28;20123;-41
2023/01/02 03:54:15;;;;;;;8.15;3.28;;;13.30;99.90;;;;;;5042830;28;20466;-39
2023/01/02 03:57:01;;;;;;;5.25;2.63;;;13.30;99.90;;;;;;5043291;28;20114;-40
2023/01/02 03:59:27;;;;;;;3.60;2.50;;;13.30;99.90;;;;;;5044479;28;20027;-41
2023/01/02 04:02:14;;;;;;;7.15;2.95;;;13.30;99.90;;;;;;5043122;28;20404;-40
2023/01/02 04:04:45;;;;;;;5.72;2.40;;;13.30;99.90;;;;;;5043897;28;20037;-38
2023/01/02 04:07:17;;;;;;;6.55;2.40;;;13.40;99.90;;;;;;5040334;28;20021;-40
2023/01/02 04:09:44;;;;;;;4.40;2.65;;;13.40;99.90;;;;;;5042816;28;20029;-37
2023/01/02 04:12:14;;;;;;;5.72;2.83;;;13.40;99.90;;;;;;5045659;28;20816;-40
2023/01/02 04:14:45;;;;;;;5.70;2.72;;;13.40;99.90;;;;;;5048303;28;20024;-40
2023/01/02 04:17:12;;;;;;;4.28;2.58;;;13.40;99.90;;;;;;5046073;28;20040;-39
2023/01/02 04:19:48;;;;;;;5.13;2.63;;;13.40;99.90;;;;;;5047653;28;20663;-40
2023/01/02 04:22:49;;;;;;;4.22;2.60;;;13.40;99.90;;;;;;5046717;28;20040;-40
2023/01/02 04:25:17;;;;;;;2.80;2.10;;;13.40;99.90;;;;;;5045109;28;20041;-39
2023/01/02 04:27:50;;;;;;;3.00;1.92;;;13.40;99.90;;;;;;5047248;28;20033;-41
2023/01/02 04:30:15;;;;;;;5.88;2.92;;;13.40;99.90;;;;;;5046400;28;20086;-41
2023/01/02 04:32:43;;;;;;;6.55;2.70;;;13.40;99.90;;;;;;5047030;28;20021;-40
2023/01/02 04:35:12;;;;;;;6.15;2.53;;;13.40;99.90;;;;;;5046603;28;20137;-39
2023/01/02 04:37:40;;;;;;;7.57;2.78;;;13.40;99.90;;;;;;5046841;28;20120;-39
2023/01/02 04:40:25;;;;;;;5.00;2.80;;;13.40;99.90;;;;;;5046867;28;20063;-39
2023/01/02 04:42:52;;;;;;;7.10;2.65;;;13.40;99.90;;;;;;5047322;28;20037;-38
2023/01/02 04:45:17;;;;;;;4.30;2.38;;;13.40;99.90;;;;;;5045781;28;20063;-41
2023/01/02 04:47:43;;;;;;;5.70;2.55;;;13.30;99.90;;;;;;5046420;28;20116;-39
2023/01/02 04:50:09;;;;;;;4.07;2.50;;;13.40;99.90;;;;;;5046268;28;20028;-38
2023/01/02 04:52:35;;;;;;;5.85;2.65;;;13.30;99.90;;;;;;5046725;28;20384;-39
2023/01/02 04:55:01;;;;;;;3.70;2.20;;;13.30;99.90;;;;;;5046533;28;20547;-40
2023/01/02 04:57:26;;;;;;;5.82;2.53;;;13.40;99.90;;;;;;5046722;28;20033;-41
2023/01/02 04:59:52;;;;;;;5.47;2.65;;;13.30;99.90;;;;;;5046724;28;20025;-39
2023/01/02 05:02:18;;;;;;;5.10;2.60;;;13.40;99.90;;;;;;5046148;28;20090;-40
2023/01/02 05:04:43;;;;;;;5.40;2.53;;;13.30;99.90;;;;;;5045881;28;20186;-40
2023/01/02 05:07:09;;;;;;;4.45;2.55;;;13.30;99.90;;;;;;5046026;28;20028;-38
2023/01/02 05:09:34;;;;;;;3.30;2.15;;;13.30;99.90;;;;;;5046348;28;20757;-39
2023/01/02 05:12:00;;;;;;;3.05;2.25;;;13.30;99.90;;;;;;5045688;28;20499;-39
2023/01/02 05:14:26;;;;;;;5.43;2.60;;;13.30;99.90;;;;;;5046235;28;20017;-39
2023/01/02 05:16:51;;;;;;;3.75;2.45;;;13.30;99.90;;;;;;5046629;28;20049;-38
2023/01/02 05:19:17;;;;;;;4.18;2.40;;;13.30;99.90;;;;;;5044633;28;20023;-40
2023/01/02 05:24:27;;;;;;;5.90;2.35;;;13.40;99.90;;;;;;5045472;28;20319;-39
2023/01/02 05:26:53;;;;;;;3.53;2.20;;;13.40;99.90;;;;;;5046119;28;20116;-38
2023/01/02 05:29:19;;;;;;;2.92;2.00;;;13.40;99.90;;;;;;5045452;28;20029;-40
2023/01/02 05:31:44;;;;;;;2.80;2.00;;;13.40;99.90;;;;;;5046461;28;20052;-39
2023/01/02 05:34:13;;;;;;;5.85;2.50;;;13.40;99.90;;;;;;5044668;28;20045;-40
2023/01/02 05:36:42;;;;;;;6.22;2.33;;;13.40;99.90;;;;;;5046041;28;20036;-40
2023/01/02 05:39:08;;;;;;;7.95;2.40;;;13.40;99.90;;;;;;5045399;28;20036;-41
2023/01/02 05:41:34;;;;;;;3.40;2.13;;;13.40;99.90;;;;;;5045290;28;20719;-39
2023/01/02 05:43:59;;;;;;;6.60;2.80;;;13.40;99.90;;;;;;5045892;28;20028;-39
2023/01/02 05:46:25;;;;;;;4.28;2.35;;;13.40;99.90;;;;;;5045590;28;20135;-39
2023/01/02 05:48:50;;;;;;;5.03;2.50;;;13.40;99.90;;;;;;5045002;28;20112;-39
2023/01/02 05:51:17;;;;;;;6.30;3.13;;;13.40;99.90;;;;;;5045645;28;20028;-41
2023/01/02 05:53:42;;;;;;;6.55;2.55;;;13.40;99.90;;;;;;5045616;28;20028;-41
2023/01/02 05:56:10;;;;;;;6.78;2.97;;;13.40;99.90;;;;;;5045059;28;20033;-41
2023/01/02 05:58:38;;;;;;;4.90;2.20;;;13.50;99.90;;;;;;5045666;28;20040;-39
2023/01/02 06:01:10;;;;;;;4.57;2.70;;;13.40;99.90;;;;;;5044195;28;20033;-37
2023/01/02 06:03:36;;;;;;;5.90;2.30;;;13.40;99.90;;;;;;5046324;28;20031;-40
2023/01/02 06:06:04;;;;;;;5.55;3.00;;;13.40;99.90;;;;;;5044722;28;20025;-40
2023/01/02 06:08:29;;;;;;;4.32;2.25;;;13.40;99.90;;;;;;5044884;28;20578;-41
2023/01/02 06:10:55;;;;;;;3.42;2.28;;;13.40;99.90;;;;;;5045462;28;20032;-41
2023/01/02 06:13:20;;;;;;;4.72;2.53;;;13.50;99.90;;;;;;5044580;28;20036;-39
2023/01/02 06:15:48;;;;;;;5.43;2.58;;;13.50;99.90;;;;;;5044152;28;20068;-39
2023/01/02 06:18:14;;;;;;;5.40;2.72;;;13.40;99.90;;;;;;5024785;28;20033;-40
2023/01/02 06:20:39;;;;;;;3.40;2.45;;;13.50;99.90;;;;;;5039540;28;20028;-40
2023/01/02 06:23:05;;;;;;;6.65;2.63;;;13.50;99.90;;;;;;5043938;28;20036;-40
2023/01/02 06:25:32;;;;;;;2.38;2.10;;;13.50;99.90;;;;;;5045340;28;20013;-38
2023/01/02 06:27:58;;;;;;;3.55;2.42;;;13.50;99.90;;;;;;5044908;28;20424;-39
2023/01/02 06:30:23;;;;;;;3.72;2.33;;;13.40;99.90;;;;;;5043956;28;20032;-40
2023/01/02 06:32:49;;;;;;;4.78;2.58;;;13.40;99.90;;;;;;5044866;28;20764;-38
2023/01/02 06:35:14;;;;;;;4.47;2.30;;;13.40;99.90;;;;;;5043988;28;20722;-39
2023/01/02 06:37:43;;;;;;;4.57;2.63;;;13.40;99.90;;;;;;5044260;28;20047;-38
2023/01/02 06:40:10;;;;;;;5.22;2.75;;;13.40;99.90;;;;;;5044470;28;20017;-40
2023/01/02 06:42:38;;;;;;;6.55;2.90;;;13.30;99.90;;;;;;5045325;28;20039;-40
2023/01/02 06:45:04;;;;;;;2.85;2.20;;;13.30;99.90;;;;;;5043694;28;20032;-39
2023/01/02 06:47:30;;;;;;;2.78;1.77;;;13.20;99.90;;;;;;5044203;28;20098;-43
2023/01/02 06:49:56;;;;;;;3.35;1.60;;;13.00;99.90;;;;;;5044750;28;20591;-39
2023/01/02 06:52:21;;;;;;;1.13;0.90;;;12.90;99.90;;;;;;5043121;28;20059;-40
2023/01/02 06:54:47;;;;;;;1.02;0.65;;;12.70;99.90;;;;;;5044711;28;20036;-39
2023/01/02 06:57:12;;;;;;;0.90;0.60;;;12.60;99.90;;;;;;5043183;28;20837;-39
2023/01/02 06:59:38;;;;;;;0.85;0.40;;;12.40;99.90;;;;;;5044556;28;20017;-41
2023/01/02 07:02:09;;;;;;;0.40;0.40;;;12.30;99.90;;;;;;5044358;28;20025;-38
2023/01/02 07:04:35;;;;;;;0.70;0.40;;;12.20;99.90;;;;;;5043634;28;20021;-40
2023/01/02 07:07:00;;;;;;;0.30;0.30;;;12.10;99.90;;;;;;5043334;28;20110;-40
2023/01/02 07:09:26;;;;;;;0.43;0.43;;;12.00;99.90;;;;;;5044109;28;20025;-39
2023/01/02 07:11:52;;;;;;;0.30;0.30;;;11.90;99.90;;;;;;5043593;28;20079;-40
2023/01/02 07:14:18;;;;;;;0.38;0.30;;;11.90;99.90;;;;;;5043513;28;20052;-40
2023/01/02 07:16:43;;;;;;;1.48;0.68;;;11.80;99.90;;;;;;5044709;28;20068;-41
2023/01/02 07:19:09;;;;;;;0.40;0.40;;;11.70;99.90;;;;;;5043227;28;20025;-40
2023/01/02 07:21:34;;;;;;;0.70;0.50;;;11.70;99.90;;;;;;5044235;28;20048;-40
2023/01/02 07:24:00;;;;;;;0.60;0.60;;;11.60;99.90;;;;;;5043973;28;20029;-40
2023/01/02 07:26:25;;;;;;;0.70;0.70;;;11.50;99.90;;;;;;5043150;28;20135;-39
2023/01/02 07:28:51;;;;;;;0.55;0.55;;;11.50;99.90;;;;;;5043924;28;20048;-39
2023/01/02 07:31:18;;;;;;;0.80;0.80;;;11.50;99.90;;;;;;5044054;28;20037;-40
2023/01/02 07:33:44;;;;;;;1.10;1.00;;;11.40;99.90;;;;;;5043148;28;20045;-39
2023/01/02 07:36:13;;;;;;;0.93;0.90;;;11.40;99.90;;;;;;5044054;28;20200;-39
2023/01/02 07:38:39;;;;;;;0.90;0.90;;;11.30;99.90;;;;;;5044247;28;20037;-40
2023/01/02 07:41:14;;;;;;;1.08;1.08;;;11.30;99.90;;;;;;5043026;28;20027;-39
2023/01/02 07:43:41;;;;;;;1.10;1.10;;;11.30;99.90;;;;;;5043946;28;20241;-42
2023/01/02 07:46:07;;;;;;;1.35;1.23;;;11.30;99.90;;;;;;5043361;28;20119;-40
2023/01/02 07:48:32;;;;;;;1.38;1.27;;;11.30;99.90;;;;;;5042577;28;20021;-39
2023/01/02 07:51:02;;;;;;;1.60;1.50;;;11.30;99.90;;;;;;5043637;28;20035;-40
2023/01/02 07:53:28;;;;;;;1.60;1.50;;;11.30;99.90;;;;;;5043143;28;20056;-39
2023/01/02 07:55:55;;;;;;;2.03;1.92;;;11.30;99.90;;;;;;5044421;28;20552;-37
2023/01/02 07:58:22;;;;;;;2.08;1.98;;;11.30;99.90;;;;;;5043202;28;20029;-39
2023/01/02 08:00:47;;;;;;;2.95;2.75;;;11.30;99.90;;;;;;5043163;28;20037;-40
2023/01/02 08:03:13;;;;;;;3.08;2.88;;;11.40;99.90;;;;;;5043253;28;20099;-39
2023/01/02 08:05:38;;;;;;;2.95;2.75;;;11.40;99.90;;;;;;5043563;28;20103;-40
2023/01/02 08:08:04;;;;;;;3.67;3.17;;;11.30;99.90;;;;;;5042777;28;20021;-40
2023/01/02 08:10:29;;;;;;;3.20;2.92;;;11.40;99.90;;;;;;5044156;28;20028;-40
2023/01/02 08:12:56;;;;;;;3.58;3.28;;;11.30;99.90;;;;;;5043873;28;20104;-40
2023/01/02 08:15:22;;;;;;;4.00;3.70;;;11.30;99.90;;;;;;5042900;28;20025;-38
2023/01/02 08:17:48;;;;;;;4.57;4.18;;;11.30;99.90;;;;;;5044098;28;20040;-40
2023/01/02 08:20:13;;;;;;;4.93;4.50;;;11.30;99.90;;;;;;5042965;28;20024;-39
2023/01/02 08:22:39;;;;;;;5.57;5.07;;;11.30;99.90;;;;;;5042910;28;20029;-38
2023/01/02 08:25:05;;;;;;;5.50;5.00;;;11.30;99.90;;;;;;5042219;28;20029;-39
2023/01/02 08:27:31;;;;;;;5.00;4.50;;;11.30;99.90;;;;;;5023939;28;20037;-38
2023/01/02 08:29:56;;;;;;;5.75;5.25;;;11.30;99.90;;;;;;5036468;28;20029;-37
2023/01/02 08:32:22;;;;;;;5.82;5.22;;;11.20;99.90;;;;;;5042894;28;20034;-40
2023/01/02 08:34:48;;;;;;;5.90;5.30;;;11.20;99.90;;;;;;5043216;28;20037;-40
2023/01/02 08:37:13;;;;;;;7.72;6.85;;;11.20;99.90;;;;;;5042079;28;20067;-39
2023/01/02 08:39:39;;;;;;;7.38;6.68;;;11.20;99.90;;;;;;5043379;28;20544;-35
2023/01/02 08:42:04;;;;;;;8.38;7.57;;;11.10;99.90;;;;;;5043171;28;20034;-39
2023/01/02 08:44:30;;;;;;;7.43;6.72;;;11.10;99.90;;;;;;5042463;28;20029;-41
2023/01/02 08:46:55;;;;;;;7.45;6.72;;;11.10;99.90;;;;;;5043825;28;20036;-36
2023/01/02 08:49:21;;;;;;;7.18;6.45;;;11.10;99.90;;;;;;5042267;28;20017;-39
2023/01/02 08:51:46;;;;;;;6.30;5.70;;;11.10;99.90;;;;;;5042920;28;20047;-39
2023/01/02 08:54:12;;;;;;;6.20;5.60;;;11.10;99.90;;;;;;5042937;28;20023;-38
2023/01/02 08:56:38;;;;;;;5.45;4.95;;;11.10;99.90;;;;;;5042876;28;20072;-40
2023/01/02 08:59:06;;;;;;;5.25;4.75;;;11.10;99.90;;;;;;5044988;28;20808;-40
2023/01/02 09:01:32;;;;;;;4.80;4.38;;;11.10;99.90;;;;;;5046256;28;20039;-41
2023/01/02 09:03:59;;;;;;;3.85;3.55;;;11.00;99.90;;;;;;5045826;28;20477;-38
2023/01/02 09:06:29;;;;;;;4.47;4.07;;;11.00;99.90;;;;;;5046376;28;20029;-40
2023/01/02 09:08:57;;;;;;;4.20;3.42;;;11.00;99.90;;;;;;5027232;28;20107;-40
2023/01/02 09:11:25;;;;;;;4.10;3.30;;;10.90;99.90;;;;;;5040293;28;20025;-40
2023/01/02 09:13:51;;;;;;;3.20;2.90;;;10.90;99.90;;;;;;5046377;28;20049;-40
2023/01/02 09:16:17;;;;;;;3.20;2.85;;;10.90;99.90;;;;;;5045908;28;20079;-40
2023/01/02 09:18:42;;;;;;;3.80;2.90;;;10.80;99.90;;;;;;5045526;28;20071;-38
2023/01/02 09:21:08;;;;;;;3.75;3.20;;;10.80;99.90;;;;;;5045693;28;20444;-40
2023/01/02 09:23:34;;;;;;;3.13;2.83;;;10.80;99.90;;;;;;5046363;28;20071;-39
2023/01/02 09:26:02;;;;;;;3.90;2.97;;;10.80;99.90;;;;;;5044250;28;20025;-39
2023/01/02 09:28:28;;;;;;;3.72;3.35;;;10.80;99.90;;;;;;5045905;28;20104;-37
2023/01/02 09:30:54;;;;;;;3.30;2.95;;;10.80;99.90;;;;;;5046110;28;20074;-40
2023/01/02 09:33:20;;;;;;;4.90;3.30;;;10.80;99.90;;;;;;5044719;28;20757;-40
2023/01/02 09:35:46;;;;;;;4.50;3.08;;;10.80;99.90;;;;;;5046195;28;20024;-40
2023/01/02 09:38:11;;;;;;;4.50;3.75;;;10.80;99.90;;;;;;5044866;28;20047;-38
2023/01/02 09:40:45;;;;;;;4.40;4.00;;;10.80;99.90;;;;;;5045638;28;20361;-40
2023/01/02 09:43:12;;;;;;;4.00;3.60;;;10.70;99.90;;;;;;5045826;28;20542;-38
2023/01/02 09:45:42;;;;;;;4.40;4.00;;;10.70;99.90;;;;;;5046205;28;20033;-40
2023/01/02 09:48:17;;;;;;;4.45;4.05;;;10.70;99.90;;;;;;5044428;28;20048;-40
2023/01/02 09:50:46;;;;;;;4.75;4.25;;;10.70;99.90;;;;;;5046183;28;20047;-39
2023/01/02 09:53:13;;;;;;;5.95;3.80;;;10.80;99.90;;;;;;5043953;28;20025;-39
2023/01/02 09:56:03;;;;;;;4.85;4.20;;;10.80;99.90;;;;;;5045726;28;20025;-38
2023/01/02 09:58:40;;;;;;;4.07;3.67;;;10.80;99.90;;;;;;5044911;28;20500;-40
2023/01/02 10:01:24;;;;;;;5.60;3.30;;;10.80;99.90;;;;;;5044790;28;20025;-38
2023/01/02 10:04:01;;;;;;;3.00;2.80;;;10.90;99.90;;;;;;5045339;28;20710;-33
2023/01/02 10:06:45;;;;;;;3.63;3.00;;;10.90;99.90;;;;;;5045144;28;20477;-35
2023/01/02 10:09:34;;;;;;;4.63;2.65;;;10.90;99.90;;;;;;5039954;28;20029;-38
2023/01/02 10:12:28;;;;;;;3.80;2.55;;;10.90;99.90;;;;;;5045233;28;20032;-41
2023/01/02 10:15:03;;;;;;;2.10;1.90;;;10.90;99.90;;;;;;5034761;28;20036;-39
2023/01/02 10:17:36;;;;;;;2.13;1.88;;;10.90;99.90;;;;;;5044792;28;20516;-40
2023/01/02 10:20:14;;;;;;;3.75;2.05;;;10.90;99.90;;;;;;5034493;28;20581;-41
2023/01/02 10:22:48;;;;;;;2.97;2.15;;;10.90;99.90;;;;;;5045128;28;20024;-40
2023/01/02 10:25:38;;;;;;;2.47;1.73;;;10.90;99.90;;;;;;5033982;28;20029;-36
2023/01/02 10:28:34;;;;;;;2.67;1.90;;;10.90;99.90;;;;;;5043541;28;20546;-38
2023/01/02 10:31:06;;;;;;;1.95;1.70;;;10.90;99.90;;;;;;5044837;28;20029;-40
2023/01/02 10:33:46;;;;;;;3.08;1.75;;;10.90;99.90;;;;;;5044518;28;20045;-44
2023/01/02 10:36:34;;;;;;;2.83;1.40;;;10.90;99.90;;;;;;5043277;28;20484;-39
2023/01/02 10:39:03;;;;;;;2.75;1.60;;;10.90;99.90;;;;;;5044250;28;20060;-40
2023/01/02 10:41:30;;;;;;;3.75;1.70;;;10.90;99.90;;;;;;5044931;28;20377;-39
2023/01/02 10:44:10;;;;;;;2.03;1.30;;;11.00;99.90;;;;;;5044004;28;20032;-37
2023/01/02 10:46:37;;;;;;;1.98;1.40;;;11.00;99.90;;;;;;5044839;28;20076;-40
2023/01/02 10:49:05;;;;;;;2.45;1.40;;;11.00;99.90;;;;;;5044357;28;20095;-37
2023/01/02 10:51:31;;;;;;;1.98;1.30;;;11.00;99.90;;;;;;5044001;28;20116;-39
2023/01/02 10:54:08;;;;;;;2.22;1.30;;;11.00;99.90;;;;;;5044514;28;20021;-41
2023/01/02 10:56:36;;;;;;;2.92;1.40;;;11.00;99.90;;;;;;5044174;28;20072;-40
2023/01/02 10:59:03;;;;;;;3.03;1.40;;;11.00;99.90;;;;;;5043869;28;20017;-39
2023/01/02 11:01:29;;;;;;;3.42;1.30;;;11.00;99.90;;;;;;5044521;28;20036;-41
2023/01/02 11:03:54;;;;;;;2.85;1.63;;;11.00;99.90;;;;;;5043231;28;20012;-39
2023/01/02 11:06:27;;;;;;;2.42;1.48;;;11.10;99.90;;;;;;5044419;28;20031;-39
2023/01/02 11:09:02;;;;;;;3.55;1.60;;;11.10;99.90;;;;;;5045167;28;20021;-40
2023/01/02 11:11:31;;;;;;;2.58;1.88;;;11.10;99.90;;;;;;5043464;28;20108;-39
2023/01/02 11:14:06;;;;;;;4.47;1.98;;;11.10;99.90;;;;;;5044075;28;20072;-42
2023/01/02 11:16:36;;;;;;;4.57;1.90;;;11.10;99.90;;;;;;5041506;28;20032;-39
2023/01/02 11:19:06;;;;;;;3.05;1.90;;;11.10;99.90;;;;;;5043515;28;20037;-39
2023/01/02 11:21:37;;;;;;;3.70;1.55;;;11.20;99.90;;;;;;5043217;28;20127;-40
2023/01/02 11:24:07;;;;;;;3.03;1.50;;;11.20;99.90;;;;;;5043937;28;20035;-41
2023/01/02 11:26:37;;;;;;;2.63;1.10;;;11.30;99.90;;;;;;5043018;28;20048;-40
2023/01/02 11:29:08;;;;;;;2.35;1.20;;;11.30;99.90;;;;;;5043812;28;20135;-40
2023/01/02 11:31:35;;;;;;;3.92;1.15;;;11.30;99.90;;;;;;5043039;28;20040;-38
2023/01/02 11:34:09;;;;;;;6.28;1.35;;;11.40;99.90;;;;;;5043266;28;20099;-39
2023/01/02 11:36:35;;;;;;;2.35;1.20;;;11.40;99.90;;;;;;5044212;28;20059;-38
2023/01/02 11:39:21;;;;;;;3.03;1.15;;;11.40;99.90;;;;;;5043517;28;20500;-34
2023/01/02 11:44:55;;;;;;;3.53;1.52;;;11.40;99.90;;;;;;5044589;28;20079;-39
2023/01/02 11:47:32;;;;;;;3.85;1.20;;;11.30;99.90;;;;;;5042312;28;20029;-39
2023/01/02 11:49:59;;;;;;;2.22;1.13;;;11.30;99.90;;;;;;5043988;28;20104;-36
2023/01/02 11:52:37;;;;;;;3.58;1.33;;;11.20;99.90;;;;;;5045142;28;20102;-36
2023/01/02 11:55:21;;;;;;;3.20;1.30;;;11.30;99.90;;;;;;5045293;28;20049;-40
2023/01/02 11:57:54;;;;;;;2.20;1.10;;;11.30;99.90;;;;;;5045812;28;20041;-35
2023/01/02 12:00:22;;;;;;;3.63;1.40;;;11.30;99.90;;;;;;5043212;28;20435;-40
2023/01/02 12:02:50;;;;;;;2.22;1.20;;;11.30;99.90;;;;;;5043573;28;20033;-37
2023/01/02 12:05:43;;;;;;;2.17;1.20;;;11.30;99.90;;;;;;5043198;28;20032;-40
2023/01/02 12:08:24;;;;;;;2.60;1.35;;;11.30;99.90;;;;;;5039533;28;20037;-38
2023/01/02 12:11:13;;;;;;;3.78;1.42;;;11.40;99.90;;;;;;5044309;28;20056;-38
2023/01/02 12:14:07;;;;;;;3.67;1.42;;;11.30;99.90;;;;;;5041857;28;20044;-38
2023/01/02 12:16:36;;;;;;;2.78;1.70;;;11.40;99.90;;;;;;5042990;28;20060;-38
2023/01/02 12:19:16;;;;;;;4.15;2.05;;;11.40;99.90;;;;;;5043009;28;20021;-35
2023/01/02 12:22:01;;;;;;;3.88;2.05;;;11.40;99.90;;;;;;5042813;28;20029;-40
2023/01/02 12:24:53;;;;;;;4.30;2.20;;;11.40;99.90;;;;;;5042955;28;20025;-36
2023/01/02 12:28:02;;;;;;;4.88;2.10;;;11.40;99.90;;;;;;5041312;28;20116;-40
2023/01/02 12:30:39;;;;;;;4.10;2.60;;;11.40;99.90;;;;;;5043072;28;20116;-37
2023/01/02 12:33:39;;;;;;;6.47;2.25;;;11.30;99.90;;;;;;5045581;28;20112;-40
2023/01/02 12:36:33;;;;;;;5.93;2.70;;;11.30;99.90;;;;;;5026276;28;20037;-40
2023/01/02 12:39:31;;;;;;;4.57;2.92;;;11.30;99.90;;;;;;5046906;28;20568;-40
2023/01/02 12:42:16;;;;;;;4.53;2.58;;;11.30;99.90;;;;;;5046562;28;20025;-37
2023/01/02 12:44:53;;;;;;;7.43;2.60;;;11.40;99.90;;;;;;5047099;28;20051;-39
2023/01/02 12:48:13;;;;;;;4.03;2.50;;;11.40;99.90;;;;;;5047118;28;20025;-36
2023/01/02 12:51:10;;;;;;;4.20;2.60;;;11.40;99.90;;;;;;5032322;28;20469;-42
2023/01/02 12:53:38;;;;;;;5.63;2.47;;;11.40;99.90;;;;;;5034996;28;20425;-38
2023/01/02 12:56:30;;;;;;;4.57;2.47;;;11.40;99.90;;;;;;5046106;28;20110;-38
2023/01/02 12:59:25;;;;;;;5.25;2.40;;;11.40;99.90;;;;;;5047316;28;20473;-39
2023/01/02 13:01:58;;;;;;;4.65;2.40;;;11.40;99.90;;;;;;5047716;28;20043;-40
2023/01/02 13:04:27;;;;;;;4.00;1.95;;;11.40;99.90;;;;;;5045702;28;20116;-37
2023/01/02 13:07:18;;;;;;;3.63;1.73;;;11.40;99.90;;;;;;5026800;28;20021;-39
2023/01/02 13:09:44;;;;;;;4.40;2.50;;;11.40;99.90;;;;;;5044399;28;20792;-41
2023/01/02 13:12:23;;;;;;;4.07;2.28;;;11.40;99.90;;;;;;5045529;28;20029;-41
2023/01/02 13:14:53;;;;;;;5.85;3.00;;;11.40;99.90;;;;;;5046069;28;20048;-41